Detroit, Michigan
Traffic Map
Current Weather Conditions
Detroit, Michigan
Broken Clouds
Broken Clouds
43°
Feels Like: 43°
Wind Chill: 43° Ceiling: 26000
Heat Index: 43° Visibility: 15mi
Dew Point: 36° Wind: 3mph
Humidity: 76% Direction: 140° (SE)
Pressure: 30.32in Gusts: 0mph
Raw Report DataCYQG 201300Z 14003KT 15SM BKN260 06/02 A3032 RMK CI2 CC ASOCTD CONTRAILS SLP272
Traffic Incident Summary
Active as of:
Severity:
Category:
InformationThere was an issue retrieving the traffic information for this location. Please try a different location or try again shortly.
Advertisements
At Last! Intellicast now available for iPhone and Android